createdAt,value
2019-01-11T00:01:01.073Z,1023.51
2019-01-11T00:02:10.494Z,1023.51
2019-01-11T00:03:20.161Z,1023.47
2019-01-11T00:04:29.584Z,1023.46
2019-01-11T00:05:38.759Z,1023.46
2019-01-11T00:06:47.931Z,1023.43
2019-01-11T00:07:57.621Z,1023.44
2019-01-11T00:09:07.542Z,1023.4
2019-01-11T00:10:16.962Z,1023.42
2019-01-11T00:11:26.873Z,1023.46
2019-01-11T00:12:36.291Z,1023.39
2019-01-11T00:13:45.983Z,1023.34
2019-01-11T00:14:55.650Z,1023.4
2019-01-11T00:16:05.342Z,1023.41
2019-01-11T00:17:14.758Z,1023.43
2019-01-11T00:18:24.703Z,1023.42
2019-01-11T00:19:34.376Z,1023.38
2019-01-11T00:20:44.054Z,1023.38
2019-01-11T00:21:53.720Z,1023.35
2019-01-11T00:23:02.893Z,1023.37
2019-01-11T00:24:13.841Z,1023.31
2019-01-11T00:25:23.522Z,1023.33
2019-01-11T00:26:32.942Z,1023.32
2019-01-11T00:27:42.362Z,1023.3
2019-01-11T00:28:52.041Z,1023.29
2019-01-11T00:30:01.707Z,1023.24
2019-01-11T00:31:11.371Z,1023.23
2019-01-11T00:32:20.790Z,1023.2
2019-01-11T00:33:30.213Z,1023.19
2019-01-11T00:34:39.884Z,1023.2
2019-01-11T00:35:49.050Z,1023.2
2019-01-11T00:36:58.718Z,1023.18
2019-01-11T00:38:08.396Z,1023.15
2019-01-11T00:39:18.069Z,1023.17
2019-01-11T00:40:27.986Z,1023.15
2019-01-11T00:41:37.397Z,1023.1
2019-01-11T00:42:47.069Z,1023.1
2019-01-11T00:43:56.986Z,1023.07
2019-01-11T00:45:06.662Z,1023.03
2019-01-11T00:46:16.338Z,1023.07
2019-01-11T00:47:26.007Z,1023.04
2019-01-11T00:48:35.930Z,1023.04
2019-01-11T00:49:45.358Z,1023.04
2019-01-11T00:50:55.042Z,1023.04
2019-01-11T00:52:04.727Z,1023.03
2019-01-11T00:53:14.147Z,1023.02
2019-01-11T00:54:23.317Z,1023.04
2019-01-11T00:55:32.989Z,1022.98
2019-01-11T00:56:42.406Z,1022.99
2019-01-11T00:57:52.338Z,1022.99
2019-01-11T00:59:02.255Z,1022.91
2019-01-11T01:00:11.925Z,1022.93
2019-01-11T01:01:21.849Z,1022.9
2019-01-11T01:02:31.623Z,1022.94
2019-01-11T01:03:41.545Z,1022.91
2019-01-11T01:04:51.473Z,1022.87
2019-01-11T01:06:00.898Z,1022.87
2019-01-11T01:07:10.564Z,1022.87
2019-01-11T01:08:19.740Z,1022.88
2019-01-11T01:09:35.497Z,1022.87
2019-01-11T01:10:45.164Z,1022.87
2019-01-11T01:11:54.347Z,1022.83
2019-01-11T01:13:03.766Z,1022.87
2019-01-11T01:14:13.434Z,1022.84
2019-01-11T01:15:22.854Z,1022.85
2019-01-11T01:16:32.273Z,1022.88
2019-01-11T01:17:42.189Z,1022.84
2019-01-11T01:18:51.867Z,1022.82
2019-01-11T01:20:01.539Z,1022.74
2019-01-11T01:21:11.460Z,1022.78
2019-01-11T01:22:21.378Z,1022.78
2019-01-11T01:23:30.549Z,1022.74
2019-01-11T01:24:39.970Z,1022.77
2019-01-11T01:25:49.640Z,1022.77
2019-01-11T01:26:59.310Z,1022.67
2019-01-11T01:28:09.013Z,1022.71
2019-01-11T01:29:18.686Z,1022.66
2019-01-11T01:30:28.606Z,1022.65
2019-01-11T01:31:38.275Z,1022.65
2019-01-11T01:32:48.192Z,1022.65
2019-01-11T01:33:57.860Z,1022.66
2019-01-11T01:35:07.543Z,1022.62
2019-01-11T01:36:17.464Z,1022.65
2019-01-11T01:37:27.180Z,1022.68
2019-01-11T01:38:37.631Z,1022.59
2019-01-11T01:39:46.798Z,1022.57
2019-01-11T01:40:56.724Z,1022.59
2019-01-11T01:42:06.643Z,1022.56
2019-01-11T01:43:16.572Z,1022.53
2019-01-11T01:44:25.991Z,1022.53
2019-01-11T01:45:35.912Z,1022.55
2019-01-11T01:46:45.581Z,1022.52
2019-01-11T01:47:55.495Z,1022.51
2019-01-11T01:49:05.179Z,1022.52
2019-01-11T01:50:14.851Z,1022.52
2019-01-11T01:51:24.522Z,1022.51
2019-01-11T01:52:33.938Z,1022.54
2019-01-11T01:53:43.653Z,1022.53
2019-01-11T01:54:53.320Z,1022.48
2019-01-11T01:56:03.005Z,1022.57
2019-01-11T01:57:12.424Z,1022.53
2019-01-11T01:58:21.853Z,1022.46
2019-01-11T01:59:31.280Z,1022.51
2019-01-11T02:00:41.199Z,1022.55
2019-01-11T02:01:50.616Z,1022.48
2019-01-11T02:03:00.297Z,1022.49
2019-01-11T02:04:09.714Z,1022.54
2019-01-11T02:05:19.146Z,1022.53
2019-01-11T02:06:28.818Z,1022.59
2019-01-11T02:07:38.487Z,1022.52
2019-01-11T02:08:47.408Z,1022.46
2019-01-11T02:09:57.082Z,1022.44
2019-01-11T02:11:06.762Z,1022.39
2019-01-11T02:12:16.230Z,1022.37
2019-01-11T02:13:25.664Z,1022.41
2019-01-11T02:14:35.334Z,1022.37
2019-01-11T02:15:44.762Z,1022.37
2019-01-11T02:16:54.688Z,1022.36
2019-01-11T02:18:04.608Z,1022.39
2019-01-11T02:19:14.281Z,1022.36
2019-01-11T02:24:43.635Z,1022.3
2019-01-11T02:29:06.083Z,1022.19
2019-01-11T02:30:15.507Z,1022.21
2019-01-11T02:31:25.207Z,1022.18
2019-01-11T02:32:34.381Z,1022.23
2019-01-11T02:33:43.817Z,1022.15
2019-01-11T02:34:53.739Z,1022.18
2019-01-11T02:36:03.410Z,1022.11
2019-01-11T02:37:12.830Z,1022.17
2019-01-11T02:38:22.752Z,1022.16
2019-01-11T02:39:32.907Z,1022.16
2019-01-11T02:40:42.593Z,1022.19
2019-01-11T02:41:52.266Z,1022.19
2019-01-11T02:43:01.940Z,1022.2
2019-01-11T02:44:11.628Z,1022.16
2019-01-11T02:45:21.302Z,1022.1
2019-01-11T02:46:30.973Z,1022.14
2019-01-11T02:47:40.647Z,1022.12
2019-01-11T02:48:50.313Z,1022.08
2019-01-11T02:50:00.253Z,1022.05
2019-01-11T02:51:09.428Z,1022.02
2019-01-11T02:52:19.104Z,1021.97
2019-01-11T02:53:28.792Z,1021.96
2019-01-11T02:54:38.464Z,1021.94
2019-01-11T02:55:48.146Z,1021.92
2019-01-11T02:56:58.088Z,1021.85
2019-01-11T02:58:08.014Z,1021.75
2019-01-11T02:59:17.689Z,1021.66
2019-01-11T03:00:27.358Z,1021.72
2019-01-11T03:01:37.303Z,1021.75
2019-01-11T03:02:46.993Z,1021.84
2019-01-11T03:03:56.916Z,1021.82
2019-01-11T03:05:06.835Z,1021.83
2019-01-11T03:06:16.787Z,1021.8
2019-01-11T03:07:26.456Z,1021.91
2019-01-11T03:08:36.387Z,1021.95
2019-01-11T03:09:46.319Z,1021.96
2019-01-11T03:10:56.008Z,1022.01
2019-01-11T03:12:05.453Z,1022.06
2019-01-11T03:13:15.131Z,1022.08
2019-01-11T03:14:25.058Z,1022.1
2019-01-11T03:15:34.228Z,1022.09
2019-01-11T03:16:43.900Z,1022.08
2019-01-11T03:17:53.560Z,1022.02
2019-01-11T03:19:03.479Z,1022.09
2019-01-11T03:20:12.908Z,1022.07
2019-01-11T03:21:22.595Z,1021.99
2019-01-11T03:22:32.517Z,1022.1
2019-01-11T03:23:41.944Z,1022.05
2019-01-11T03:24:51.610Z,1022.07
2019-01-11T03:26:01.539Z,1021.95
2019-01-11T03:27:11.475Z,1021.9
2019-01-11T03:28:21.139Z,1021.88
2019-01-11T03:29:31.066Z,1021.84
2019-01-11T03:30:42.051Z,1021.79
2019-01-11T03:31:52.014Z,1021.81
2019-01-11T03:33:01.975Z,1021.75
2019-01-11T03:34:11.762Z,1021.71
2019-01-11T03:35:21.679Z,1021.69
2019-01-11T03:36:31.353Z,1021.74
2019-01-11T03:37:41.279Z,1021.65
2019-01-11T03:38:50.700Z,1021.71
2019-01-11T03:40:00.386Z,1021.71
2019-01-11T03:41:10.064Z,1021.65
2019-01-11T03:42:19.985Z,1021.64
2019-01-11T03:43:29.411Z,1021.66
2019-01-11T03:44:39.370Z,1021.58
2019-01-11T03:45:49.060Z,1021.59
2019-01-11T03:46:58.992Z,1021.61
2019-01-11T03:48:08.913Z,1021.6
2019-01-11T03:49:18.584Z,1021.58
2019-01-11T03:50:28.323Z,1021.62
2019-01-11T03:51:38.244Z,1021.57
2019-01-11T03:52:48.186Z,1021.58
2019-01-11T03:53:58.110Z,1021.59
2019-01-11T03:55:07.791Z,1021.59
2019-01-11T03:56:17.468Z,1021.53
2019-01-11T03:57:26.907Z,1021.57
2019-01-11T03:58:36.325Z,1021.58
2019-01-11T03:59:46.035Z,1021.55
2019-01-11T04:00:55.709Z,1021.52
2019-01-11T04:02:05.146Z,1021.63
2019-01-11T04:03:15.080Z,1021.61
2019-01-11T04:04:24.757Z,1021.56
2019-01-11T04:05:34.442Z,1021.55
2019-01-11T04:06:44.363Z,1021.55
2019-01-11T04:07:53.785Z,1021.56
2019-01-11T04:09:02.718Z,1021.47
2019-01-11T04:10:12.394Z,1021.5
2019-01-11T04:11:21.805Z,1021.41
2019-01-11T04:12:31.232Z,1021.4
2019-01-11T04:13:41.163Z,1021.37
2019-01-11T04:14:50.830Z,1021.36
2019-01-11T04:16:00.666Z,1021.4
2019-01-11T04:17:10.577Z,1021.37
2019-01-11T04:18:20.500Z,1021.34
2019-01-11T04:19:30.436Z,1021.36
2019-01-11T04:20:39.613Z,1021.33
2019-01-11T04:21:49.035Z,1021.24
2019-01-11T04:22:58.957Z,1021.26
2019-01-11T04:24:08.634Z,1021.23
2019-01-11T04:25:18.315Z,1021.16
2019-01-11T04:26:27.746Z,1021.13
2019-01-11T04:27:37.172Z,1021.15
2019-01-11T04:28:46.845Z,1021.12
2019-01-11T04:29:56.291Z,1021.14
2019-01-11T04:33:29.174Z,1021.04
2019-01-11T04:34:38.595Z,1021.09
2019-01-11T04:35:47.792Z,1021.05
2019-01-11T04:36:57.713Z,1021.17
2019-01-11T04:38:07.395Z,1021.16
2019-01-11T04:39:17.078Z,1021.09
2019-01-11T04:40:27.565Z,1021.2
2019-01-11T04:41:43.550Z,1021.13
2019-01-11T04:42:53.476Z,1021.08
2019-01-11T04:44:03.164Z,1021.02
2019-01-11T04:45:12.838Z,1021.02
2019-01-11T04:46:22.812Z,1020.96
2019-01-11T04:47:32.505Z,1020.95
2019-01-11T04:48:42.432Z,1020.85
2019-01-11T04:49:51.893Z,1020.89
2019-01-11T04:51:01.318Z,1020.89
2019-01-11T04:52:11.015Z,1020.86
2019-01-11T04:53:20.698Z,1020.84
2019-01-11T04:54:30.375Z,1020.88
2019-01-11T04:55:40.044Z,1020.97
2019-01-11T04:56:49.471Z,1020.85
2019-01-11T04:57:59.143Z,1020.84
2019-01-11T04:59:09.446Z,1020.88
2019-01-11T05:00:19.130Z,1020.91
2019-01-11T05:01:28.570Z,1020.9
2019-01-11T05:02:38.570Z,1020.87
2019-01-11T05:03:48.266Z,1020.86
2019-01-11T05:04:58.197Z,1020.86
2019-01-11T05:06:08.121Z,1020.92
2019-01-11T05:07:18.045Z,1020.87
2019-01-11T05:08:27.969Z,1020.91
2019-01-11T05:09:37.885Z,1020.86
2019-01-11T05:10:47.563Z,1020.82
2019-01-11T05:11:57.489Z,1020.95
2019-01-11T05:13:07.415Z,1020.84
2019-01-11T05:14:17.347Z,1020.86
2019-01-11T05:15:27.264Z,1020.96
2019-01-11T05:16:39.501Z,1020.92
2019-01-11T05:17:49.099Z,1020.89
2019-01-11T05:18:58.778Z,1020.88
2019-01-11T05:20:08.212Z,1020.89
2019-01-11T05:21:23.792Z,1020.89
2019-01-11T05:22:33.465Z,1020.92
2019-01-11T05:23:43.391Z,1020.9
2019-01-11T05:24:53.327Z,1020.89
2019-01-11T05:26:02.993Z,1020.92
2019-01-11T05:27:12.665Z,1020.92
2019-01-11T05:28:22.090Z,1020.87
2019-01-11T05:29:31.764Z,1020.83
2019-01-11T05:30:41.694Z,1020.85
2019-01-11T05:31:51.115Z,1020.86
2019-01-11T05:33:00.789Z,1020.88
2019-01-11T05:34:10.454Z,1020.9
2019-01-11T05:35:20.136Z,1020.91
2019-01-11T05:36:30.067Z,1020.89
2019-01-11T05:37:39.487Z,1020.85
2019-01-11T05:38:49.209Z,1020.83
2019-01-11T05:39:59.130Z,1020.85
2019-01-11T05:41:08.805Z,1020.85
2019-01-11T05:42:18.231Z,1020.86
2019-01-11T05:43:27.145Z,1020.84
2019-01-11T05:44:36.582Z,1020.82
2019-01-11T05:45:46.508Z,1020.78
2019-01-11T05:46:55.934Z,1020.69
2019-01-11T05:48:05.604Z,1020.73
2019-01-11T05:49:15.027Z,1020.71
2019-01-11T05:50:24.939Z,1020.71
2019-01-11T05:51:34.410Z,1020.64
2019-01-11T05:52:44.136Z,1020.62
2019-01-11T05:53:53.562Z,1020.66
2019-01-11T05:55:03.484Z,1020.67
2019-01-11T05:56:13.178Z,1020.62
2019-01-11T05:57:23.106Z,1020.65
2019-01-11T05:58:32.535Z,1020.62
2019-01-11T05:59:42.455Z,1020.55
2019-01-11T06:00:52.130Z,1020.61
2019-01-11T06:02:01.554Z,1020.54
2019-01-11T06:03:11.232Z,1020.58
2019-01-11T06:04:21.164Z,1020.51
2019-01-11T06:05:31.094Z,1020.52
2019-01-11T06:06:41.034Z,1020.55
2019-01-11T06:07:50.717Z,1020.55
2019-01-11T06:09:00.652Z,1020.54
2019-01-11T06:10:10.589Z,1020.56
2019-01-11T06:11:20.265Z,1020.54
2019-01-11T06:12:29.691Z,1020.55
2019-01-11T06:13:39.358Z,1020.54
2019-01-11T06:14:49.051Z,1020.51
2019-01-11T06:15:58.227Z,1020.48
2019-01-11T06:17:07.654Z,1020.52
2019-01-11T06:18:17.582Z,1020.54
2019-01-11T06:19:26.759Z,1020.5
2019-01-11T06:20:36.193Z,1020.49
2019-01-11T06:21:45.865Z,1020.49
2019-01-11T06:22:55.536Z,1020.44
2019-01-11T06:24:04.700Z,1020.45
2019-01-11T06:25:14.621Z,1020.51
2019-01-11T06:26:24.076Z,1020.51
2019-01-11T06:27:33.243Z,1020.47
2019-01-11T06:28:42.419Z,1020.5
2019-01-11T06:29:51.840Z,1020.47
2019-01-11T06:31:01.270Z,1020.46
2019-01-11T06:32:10.689Z,1020.46
2019-01-11T06:33:20.363Z,1020.47
2019-01-11T06:34:29.806Z,1020.47
2019-01-11T06:35:39.731Z,1020.45
2019-01-11T06:36:49.658Z,1020.44
2019-01-11T06:37:58.834Z,1020.39
2019-01-11T06:39:08.262Z,1020.43
2019-01-11T06:40:19.174Z,1020.39
2019-01-11T06:41:28.844Z,1020.44
2019-01-11T06:42:38.764Z,1020.41
2019-01-11T06:43:48.698Z,1020.46
2019-01-11T06:44:58.367Z,1020.43
2019-01-11T06:46:08.045Z,1020.49
2019-01-11T06:47:18.514Z,1020.54
2019-01-11T06:48:28.478Z,1020.5
2019-01-11T06:49:38.146Z,1020.48
2019-01-11T06:50:47.822Z,1020.45
2019-01-11T06:51:57.503Z,1020.47
2019-01-11T06:53:06.930Z,1020.41
2019-01-11T06:54:16.103Z,1020.42
2019-01-11T06:55:25.773Z,1020.41
2019-01-11T06:56:35.195Z,1020.42
2019-01-11T06:57:44.618Z,1020.38
2019-01-11T06:58:54.300Z,1020.38
2019-01-11T07:00:04.225Z,1020.38
2019-01-11T07:01:13.648Z,1020.41
2019-01-11T07:02:23.322Z,1020.39
2019-01-11T07:03:32.753Z,1020.4
2019-01-11T07:04:43.113Z,1020.38
2019-01-11T07:05:53.065Z,1020.38
2019-01-11T07:07:02.742Z,1020.36
2019-01-11T07:08:12.658Z,1020.39
2019-01-11T07:09:22.333Z,1020.39
2019-01-11T07:10:31.500Z,1020.36
2019-01-11T07:11:41.170Z,1020.31
2019-01-11T07:12:51.094Z,1020.24
2019-01-11T07:14:00.529Z,1020.23
2019-01-11T07:15:09.960Z,1020.14
2019-01-11T07:16:19.887Z,1020.14
2019-01-11T07:17:29.554Z,1020.12
2019-01-11T07:18:38.976Z,1020.16
2019-01-11T07:19:48.920Z,1020.14
2019-01-11T07:20:58.588Z,1020.21
2019-01-11T07:22:08.011Z,1020.23
2019-01-11T07:23:17.682Z,1020.23
2019-01-11T07:24:27.348Z,1020.22
2019-01-11T07:25:36.765Z,1020.19
2019-01-11T07:26:46.475Z,1020.17
2019-01-11T07:27:55.897Z,1020.13
2019-01-11T07:29:05.562Z,1020.12
2019-01-11T07:30:15.479Z,1020.12
2019-01-11T07:31:24.904Z,1020.11
2019-01-11T07:32:34.572Z,1020.05
2019-01-11T07:33:43.992Z,1020.03
2019-01-11T07:34:53.423Z,1020.02
2019-01-11T07:36:02.846Z,1019.99
2019-01-11T07:37:12.310Z,1019.92
2019-01-11T07:38:21.995Z,1019.94
2019-01-11T07:39:31.423Z,1019.92
2019-01-11T07:40:40.837Z,1019.95
2019-01-11T07:41:50.508Z,1019.94
2019-01-11T07:42:59.943Z,1020.02
2019-01-11T07:44:09.864Z,1020
2019-01-11T07:45:19.792Z,1020.01
2019-01-11T07:46:29.459Z,1020.01
2019-01-11T07:47:38.879Z,1020.03
2019-01-11T07:48:48.558Z,1020.03
2019-01-11T07:49:58.489Z,1019.96
2019-01-11T07:51:07.911Z,1020.02
2019-01-11T07:52:17.333Z,1020.05
2019-01-11T07:53:26.756Z,1020
2019-01-11T07:54:36.426Z,1019.97
2019-01-11T07:55:45.859Z,1019.99
2019-01-11T07:56:55.294Z,1019.95
2019-01-11T07:58:04.717Z,1019.96
2019-01-11T07:59:15.428Z,1020.02
2019-01-11T08:00:25.352Z,1020.05
2019-01-11T08:01:34.528Z,1019.99
2019-01-11T08:02:43.955Z,1020.02
2019-01-11T08:03:53.629Z,1020.05
2019-01-11T08:05:03.560Z,1020.06
2019-01-11T08:06:13.233Z,1019.99
2019-01-11T08:07:22.659Z,1019.99
2019-01-11T08:08:32.094Z,1019.95
2019-01-11T08:09:41.526Z,1020.01
2019-01-11T08:10:51.201Z,1019.97
2019-01-11T08:12:01.128Z,1019.99
2019-01-11T08:13:10.810Z,1020
2019-01-11T08:14:20.238Z,1020
2019-01-11T08:15:29.911Z,1020.01
2019-01-11T08:16:39.838Z,1020
2019-01-11T08:17:49.757Z,1019.97
2019-01-11T08:18:59.694Z,1020
2019-01-11T08:20:08.877Z,1019.99
2019-01-11T08:21:18.556Z,1020.03
2019-01-11T08:22:28.239Z,1020
2019-01-11T08:23:38.157Z,1020.05
2019-01-11T08:24:48.097Z,1020.05
2019-01-11T08:25:57.536Z,1020.07
2019-01-11T08:27:07.263Z,1020.06
2019-01-11T08:28:17.195Z,1020.05
2019-01-11T08:29:26.630Z,1020.05
2019-01-11T08:30:36.313Z,1020.01
2019-01-11T08:31:45.985Z,1020.04
2019-01-11T08:32:55.911Z,1019.98
2019-01-11T08:34:05.585Z,1019.98
2019-01-11T08:35:15.514Z,1020.05
2019-01-11T08:36:25.196Z,1020.01
2019-01-11T08:37:34.881Z,1020.02
2019-01-11T08:38:44.570Z,1019.95
2019-01-11T08:39:53.739Z,1019.98
2019-01-11T08:41:03.662Z,1020
2019-01-11T08:42:12.835Z,1019.98
2019-01-11T08:43:22.265Z,1019.97
2019-01-11T08:44:31.940Z,1020
2019-01-11T08:45:41.609Z,1019.98
2019-01-11T08:46:51.285Z,1019.97
2019-01-11T08:48:01.210Z,1019.99
2019-01-11T08:49:11.234Z,1019.99
2019-01-11T08:50:20.910Z,1019.95
2019-01-11T08:51:30.348Z,1019.99
2019-01-11T08:52:39.523Z,1019.97
2019-01-11T08:53:49.201Z,1019.98
2019-01-11T08:54:58.671Z,1019.98
2019-01-11T08:56:08.373Z,1019.97
2019-01-11T08:57:18.270Z,1019.96
2019-01-11T08:58:27.694Z,1019.92
2019-01-11T08:59:37.368Z,1019.9
2019-01-11T09:00:47.032Z,1019.85
2019-01-11T09:01:56.460Z,1019.91
2019-01-11T09:03:06.392Z,1019.85
2019-01-11T09:04:16.318Z,1019.9
2019-01-11T09:05:26.015Z,1019.94
2019-01-11T09:06:35.444Z,1019.95
2019-01-11T09:07:45.365Z,1019.95
2019-01-11T09:08:55.041Z,1019.88
2019-01-11T09:10:04.961Z,1019.86
2019-01-11T09:11:14.140Z,1019.91
2019-01-11T09:12:23.811Z,1019.81
2019-01-11T09:13:33.738Z,1019.84
2019-01-11T09:14:43.666Z,1019.82
2019-01-11T09:15:53.594Z,1019.83
2019-01-11T09:17:03.269Z,1019.82
2019-01-11T09:18:12.695Z,1019.8
2019-01-11T09:19:22.622Z,1019.75
2019-01-11T09:20:32.551Z,1019.76
2019-01-11T09:21:42.479Z,1019.81
2019-01-11T09:22:51.906Z,1019.88
2019-01-11T09:24:01.837Z,1019.83
2019-01-11T09:25:11.513Z,1019.82
2019-01-11T09:26:21.185Z,1019.79
2019-01-11T09:27:30.862Z,1019.82
2019-01-11T09:28:40.278Z,1019.77
2019-01-11T09:29:50.197Z,1019.78
2019-01-11T09:30:59.625Z,1019.79
2019-01-11T09:32:09.300Z,1019.81
2019-01-11T09:33:20.538Z,1019.76
2019-01-11T09:34:30.211Z,1019.74
2019-01-11T09:35:40.151Z,1019.76
2019-01-11T09:36:49.848Z,1019.73
2019-01-11T09:37:59.866Z,1019.7
2019-01-11T09:39:09.911Z,1019.71
2019-01-11T09:40:19.658Z,1019.69
2019-01-11T09:41:29.326Z,1019.71
2019-01-11T09:42:39.294Z,1019.67
2019-01-11T09:43:49.183Z,1019.66
2019-01-11T09:44:58.609Z,1019.71
2019-01-11T09:46:08.034Z,1019.67
2019-01-11T09:47:17.754Z,1019.75
2019-01-11T09:48:26.931Z,1019.75
2019-01-11T09:49:36.640Z,1019.73
2019-01-11T09:50:46.066Z,1019.72
2019-01-11T09:51:55.498Z,1019.63
2019-01-11T09:53:05.179Z,1019.72
2019-01-11T09:54:14.600Z,1019.65
2019-01-11T09:55:24.048Z,1019.66
2019-01-11T09:56:33.736Z,1019.61
2019-01-11T09:57:43.412Z,1019.68
2019-01-11T09:58:53.337Z,1019.65
2019-01-11T10:00:03.095Z,1019.66
2019-01-11T10:01:12.770Z,1019.67
2019-01-11T10:02:22.248Z,1019.66
2019-01-11T10:03:32.373Z,1019.64
2019-01-11T10:04:42.046Z,1019.68
2019-01-11T10:05:51.973Z,1019.62
2019-01-11T10:07:01.647Z,1019.7
2019-01-11T10:08:11.569Z,1019.66
2019-01-11T10:09:20.993Z,1019.65
2019-01-11T10:10:30.667Z,1019.7
2019-01-11T10:11:40.589Z,1019.64
2019-01-11T10:12:49.767Z,1019.67
2019-01-11T10:13:59.486Z,1019.59
2019-01-11T10:15:08.916Z,1019.66
2019-01-11T10:16:18.341Z,1019.63
2019-01-11T10:17:28.999Z,1019.68
2019-01-11T10:18:38.681Z,1019.61
2019-01-11T10:19:48.116Z,1019.55
2019-01-11T10:20:57.542Z,1019.59
2019-01-11T10:22:07.214Z,1019.51
2019-01-11T10:23:16.893Z,1019.54
2019-01-11T10:24:26.810Z,1019.57
2019-01-11T10:25:36.483Z,1019.5
2019-01-11T10:26:46.406Z,1019.51
2019-01-11T10:27:56.332Z,1019.58
2019-01-11T10:29:06.003Z,1019.51
2019-01-11T10:30:15.687Z,1019.49
2019-01-11T10:31:25.609Z,1019.48
2019-01-11T10:32:35.277Z,1019.51
2019-01-11T10:33:44.956Z,1019.42
2019-01-11T10:34:54.625Z,1019.47
2019-01-11T10:36:04.544Z,1019.43
2019-01-11T10:37:13.965Z,1019.41
2019-01-11T10:38:23.636Z,1019.42
2019-01-11T10:39:33.072Z,1019.43
2019-01-11T10:40:43.004Z,1019.38
2019-01-11T10:41:52.687Z,1019.37
2019-01-11T10:43:02.359Z,1019.34
2019-01-11T10:44:12.293Z,1019.34
2019-01-11T10:45:21.720Z,1019.36
2019-01-11T10:46:31.412Z,1019.3
2019-01-11T10:47:40.837Z,1019.3
2019-01-11T10:48:50.806Z,1019.29
2019-01-11T10:50:00.484Z,1019.27
2019-01-11T10:51:09.910Z,1019.25
2019-01-11T10:52:21.951Z,1019.24
2019-01-11T10:53:31.377Z,1019.27
2019-01-11T10:54:40.812Z,1019.24
2019-01-11T10:55:50.503Z,1019.25
2019-01-11T10:57:00.459Z,1019.25
2019-01-11T10:58:09.880Z,1019.2
2019-01-11T10:59:19.800Z,1019.2
2019-01-11T11:00:29.514Z,1019.23
2019-01-11T11:01:40.477Z,1019.21
2019-01-11T11:02:50.401Z,1019.18
2019-01-11T11:04:00.070Z,1019.23
2019-01-11T11:05:09.248Z,1019.21
2019-01-11T11:06:18.677Z,1019.2
2019-01-11T11:07:28.592Z,1019.16
2019-01-11T11:08:38.019Z,1019.23
2019-01-11T11:09:47.198Z,1019.19
2019-01-11T11:10:56.374Z,1019.18
2019-01-11T11:12:06.298Z,1019.14
2019-01-11T11:13:15.973Z,1019.18
2019-01-11T11:14:25.670Z,1019.13
2019-01-11T11:15:35.350Z,1019.15
2019-01-11T11:16:44.771Z,1019.09
2019-01-11T11:17:54.714Z,1019.08
2019-01-11T11:19:04.406Z,1019.1
2019-01-11T11:20:13.830Z,1019.08
2019-01-11T11:21:23.515Z,1019.09
2019-01-11T11:22:37.566Z,1019.1
2019-01-11T11:23:48.403Z,1019.04
2019-01-11T11:25:01.435Z,1019.09
2019-01-11T11:26:11.106Z,1019.1
2019-01-11T11:27:20.787Z,1019.11
2019-01-11T11:28:30.723Z,1019.13
2019-01-11T11:29:40.649Z,1019.04
2019-01-11T11:30:51.053Z,1019.11
2019-01-11T11:32:02.137Z,1019.06
2019-01-11T11:33:12.061Z,1019.01
2019-01-11T11:34:21.746Z,1019.04
2019-01-11T11:35:31.442Z,1019.11
2019-01-11T11:36:40.872Z,1018.99
2019-01-11T11:37:50.062Z,1018.92
2019-01-11T11:38:59.497Z,1018.96
2019-01-11T11:40:08.934Z,1018.94
2019-01-11T11:41:18.361Z,1018.95
2019-01-11T11:42:27.790Z,1018.95
2019-01-11T11:43:37.488Z,1018.91
2019-01-11T11:44:46.919Z,1018.9
2019-01-11T11:45:56.344Z,1018.92
2019-01-11T11:47:06.023Z,1018.97
2019-01-11T11:48:15.457Z,1018.9
2019-01-11T11:49:24.640Z,1018.97
2019-01-11T11:50:34.318Z,1018.91
2019-01-11T11:51:44.024Z,1018.88
2019-01-11T11:52:53.721Z,1018.86
2019-01-11T11:54:02.906Z,1018.84
2019-01-11T11:55:12.086Z,1018.83
2019-01-11T11:56:22.019Z,1018.83
2019-01-11T11:57:30.960Z,1018.84
2019-01-11T11:58:40.640Z,1018.83
2019-01-11T11:59:50.316Z,1018.87
2019-01-11T12:00:59.995Z,1018.87
2019-01-11T12:02:09.435Z,1018.94
2019-01-11T12:03:24.295Z,1018.93
2019-01-11T12:04:33.235Z,1018.9
2019-01-11T12:05:43.168Z,1018.85
2019-01-11T12:06:52.108Z,1018.86
2019-01-11T12:08:02.035Z,1018.89
2019-01-11T12:09:11.962Z,1018.83
2019-01-11T12:10:21.390Z,1018.82
2019-01-11T12:11:30.847Z,1018.76
2019-01-11T12:12:40.039Z,1018.78
2019-01-11T12:13:49.727Z,1018.78
2019-01-11T12:14:59.159Z,1018.68
2019-01-11T12:16:08.848Z,1018.72
2019-01-11T12:17:18.279Z,1018.71
2019-01-11T12:18:28.202Z,1018.7
2019-01-11T12:19:37.376Z,1018.74
2019-01-11T12:20:47.089Z,1018.69
2019-01-11T12:22:01.589Z,1018.71
2019-01-11T12:23:11.651Z,1018.75
2019-01-11T12:24:21.080Z,1018.66
2019-01-11T12:25:31.003Z,1018.67
2019-01-11T12:26:40.675Z,1018.65
2019-01-11T12:27:49.656Z,1018.64
2019-01-11T12:28:59.675Z,1018.58
2019-01-11T12:30:09.597Z,1018.61
2019-01-11T12:31:19.527Z,1018.6
2019-01-11T12:32:29.205Z,1018.56
2019-01-11T12:33:38.638Z,1018.59
2019-01-11T12:34:48.313Z,1018.62
2019-01-11T12:35:58.237Z,1018.58
2019-01-11T12:37:07.912Z,1018.57
2019-01-11T12:38:17.586Z,1018.54
2019-01-11T12:39:27.254Z,1018.58
2019-01-11T12:40:37.186Z,1018.53
2019-01-11T12:41:46.611Z,1018.57
2019-01-11T12:42:56.538Z,1018.47
2019-01-11T12:44:06.212Z,1018.56
2019-01-11T12:45:15.891Z,1018.48
2019-01-11T12:46:25.578Z,1018.51
2019-01-11T12:47:35.510Z,1018.44
2019-01-11T12:48:45.456Z,1018.53
2019-01-11T12:49:55.129Z,1018.52
2019-01-11T12:51:05.058Z,1018.5
2019-01-11T12:52:14.242Z,1018.52
2019-01-11T12:53:24.161Z,1018.44
2019-01-11T12:54:33.338Z,1018.47
2019-01-11T12:55:43.017Z,1018.41
2019-01-11T12:56:52.197Z,1018.43
2019-01-11T12:58:01.873Z,1018.42
2019-01-11T12:59:11.563Z,1018.4
2019-01-11T13:00:21.251Z,1018.31
2019-01-11T13:01:30.855Z,1018.38
2019-01-11T13:02:40.549Z,1018.32
2019-01-11T13:03:49.730Z,1018.35
2019-01-11T13:04:59.413Z,1018.35
2019-01-11T13:06:09.343Z,1018.39
2019-01-11T13:07:19.029Z,1018.41
2019-01-11T13:08:28.721Z,1018.32
2019-01-11T13:09:38.394Z,1018.29
2019-01-11T13:10:48.065Z,1018.32
2019-01-11T13:11:57.739Z,1018.27
2019-01-11T13:13:07.418Z,1018.32
2019-01-11T13:14:17.100Z,1018.3
2019-01-11T13:15:26.787Z,1018.33
2019-01-11T13:16:36.229Z,1018.39
2019-01-11T13:17:45.922Z,1018.31
2019-01-11T13:18:55.392Z,1018.33
2019-01-11T13:20:04.816Z,1018.34
2019-01-11T13:21:14.793Z,1018.38
2019-01-11T13:22:24.729Z,1018.32
2019-01-11T13:23:34.699Z,1018.27
2019-01-11T13:24:44.634Z,1018.39
2019-01-11T13:25:54.308Z,1018.4
2019-01-11T13:27:04.241Z,1018.43
2019-01-11T13:28:14.161Z,1018.33
2019-01-11T13:29:23.835Z,1018.29
2019-01-11T13:30:33.255Z,1018.29
2019-01-11T13:31:42.700Z,1018.27
2019-01-11T13:32:52.628Z,1018.36
2019-01-11T13:34:02.065Z,1018.3
2019-01-11T13:35:11.248Z,1018.29
2019-01-11T13:36:20.682Z,1018.24
2019-01-11T13:37:30.726Z,1018.26
2019-01-11T13:38:40.399Z,1018.27
2019-01-11T13:39:50.322Z,1018.33
2019-01-11T13:40:59.754Z,1018.21
2019-01-11T13:42:09.425Z,1018.19
2019-01-11T13:43:19.096Z,1018.24
2019-01-11T13:44:28.778Z,1018.23
2019-01-11T13:45:38.219Z,1018.24
2019-01-11T13:46:47.638Z,1018.26
2019-01-11T13:47:57.585Z,1018.25
2019-01-11T13:49:07.266Z,1018.23
2019-01-11T13:50:16.700Z,1018.18
2019-01-11T13:51:26.371Z,1018.31
2019-01-11T13:52:36.044Z,1018.23
2019-01-11T13:53:45.975Z,1018.21
2019-01-11T13:54:55.649Z,1018.27
2019-01-11T13:56:05.176Z,1018.22
2019-01-11T13:57:14.605Z,1018.15
2019-01-11T13:58:24.541Z,1018.21
2019-01-11T13:59:34.228Z,1018.3
2019-01-11T14:00:49.173Z,1018.17
2019-01-11T14:01:58.853Z,1018.18
2019-01-11T14:03:08.530Z,1018.1
2019-01-11T14:04:18.207Z,1018.14
2019-01-11T14:05:27.401Z,1018.12
2019-01-11T14:06:37.381Z,1018.23
2019-01-11T14:07:47.351Z,1018.22
2019-01-11T14:08:56.783Z,1018.22
2019-01-11T14:10:06.459Z,1018.16
2019-01-11T14:11:16.138Z,1018.13
2019-01-11T14:12:25.564Z,1018.13
2019-01-11T14:13:34.992Z,1018.05
2019-01-11T14:14:44.915Z,1018.07
2019-01-11T14:15:54.101Z,1018.07
2019-01-11T14:17:03.780Z,1018.02